<?xml version="1.0" encoding="UTF-8" standalone="no" ?>
<gpx xmlns="http://www.topografix.com/GPX/1/1" xmlns:xsi="http://www.w3.org/2001/XMLSchema-instance" xsi:schemaLocation="http://www.topografix.com/GPX/1/1 http://www.topografix.com/GPX/1/1/gpx.xsd" version="1.1" creator="VisuGPX - https://www.visugpx.com">
  <metadata>
    <name>VF 9.2 KM</name>
  </metadata>
  <trk>
    <name><![CDATA[VF 9.2 KM]]></name>
    <trkseg>
      <trkpt lat="45.58966" lon="5.28993">
        <ele>245.72</ele>
        <time>2025-07-08T09:14:55.000Z</time>
      </trkpt>
      <trkpt lat="45.58935" lon="5.28983">
        <ele>245.33</ele>
        <time>2025-07-08T09:14:55.010Z</time>
      </trkpt>
      <trkpt lat="45.58904" lon="5.28973">
        <ele>244.75</ele>
        <time>2025-07-08T09:14:55.031Z</time>
      </trkpt>
      <trkpt lat="45.58888" lon="5.28967">
        <ele>244.5</ele>
        <time>2025-07-08T09:14:55.058Z</time>
      </trkpt>
      <trkpt lat="45.58888" lon="5.28967">
        <ele>244.44</ele>
        <time>2025-07-08T09:14:55.085Z</time>
      </trkpt>
      <trkpt lat="45.58872" lon="5.28973">
        <ele>244.64</ele>
        <time>2025-07-08T09:14:55.117Z</time>
      </trkpt>
      <trkpt lat="45.58872" lon="5.28973">
        <ele>244.86</ele>
        <time>2025-07-08T09:14:55.149Z</time>
      </trkpt>
      <trkpt lat="45.58861" lon="5.28992">
        <ele>245.3</ele>
        <time>2025-07-08T09:14:55.187Z</time>
      </trkpt>
      <trkpt lat="45.58861" lon="5.28992">
        <ele>245.65</ele>
        <time>2025-07-08T09:14:55.225Z</time>
      </trkpt>
      <trkpt lat="45.58855" lon="5.29015">
        <ele>246.17</ele>
        <time>2025-07-08T09:14:55.269Z</time>
      </trkpt>
      <trkpt lat="45.58855" lon="5.29015">
        <ele>246.55</ele>
        <time>2025-07-08T09:14:55.313Z</time>
      </trkpt>
      <trkpt lat="45.58855" lon="5.29042">
        <ele>246.9</ele>
        <time>2025-07-08T09:14:55.363Z</time>
      </trkpt>
      <trkpt lat="45.58855" lon="5.29042">
        <ele>247.17</ele>
        <time>2025-07-08T09:14:55.413Z</time>
      </trkpt>
      <trkpt lat="45.5886" lon="5.29061">
        <ele>247.41</ele>
        <time>2025-07-08T09:14:55.468Z</time>
      </trkpt>
      <trkpt lat="45.5889" lon="5.29074">
        <ele>247.72</ele>
        <time>2025-07-08T09:14:55.533Z</time>
      </trkpt>
      <trkpt lat="45.5892" lon="5.29086">
        <ele>247.97</ele>
        <time>2025-07-08T09:14:55.609Z</time>
      </trkpt>
      <trkpt lat="45.58951" lon="5.29099">
        <ele>248.12</ele>
        <time>2025-07-08T09:14:55.695Z</time>
      </trkpt>
      <trkpt lat="45.58956" lon="5.29101">
        <ele>248.14</ele>
        <time>2025-07-08T09:14:55.783Z</time>
      </trkpt>
      <trkpt lat="45.58956" lon="5.29101">
        <ele>248.13</ele>
        <time>2025-07-08T09:14:55.871Z</time>
      </trkpt>
      <trkpt lat="45.58985" lon="5.29119">
        <ele>247.94</ele>
        <time>2025-07-08T09:14:55.970Z</time>
      </trkpt>
      <trkpt lat="45.59005" lon="5.29131">
        <ele>247.72</ele>
        <time>2025-07-08T09:14:56.076Z</time>
      </trkpt>
      <trkpt lat="45.59005" lon="5.29131">
        <ele>247.53</ele>
        <time>2025-07-08T09:14:56.182Z</time>
      </trkpt>
      <trkpt lat="45.58999" lon="5.29171">
        <ele>247.29</ele>
        <time>2025-07-08T09:14:56.298Z</time>
      </trkpt>
      <trkpt lat="45.5899" lon="5.29208">
        <ele>247.03</ele>
        <time>2025-07-08T09:14:56.423Z</time>
      </trkpt>
      <trkpt lat="45.58981" lon="5.29245">
        <ele>246.75</ele>
        <time>2025-07-08T09:14:56.557Z</time>
      </trkpt>
      <trkpt lat="45.58977" lon="5.29243">
        <ele>246.48</ele>
        <time>2025-07-08T09:14:56.692Z</time>
      </trkpt>
      <trkpt lat="45.58976" lon="5.29243">
        <ele>246.22</ele>
        <time>2025-07-08T09:14:56.828Z</time>
      </trkpt>
      <trkpt lat="45.58981" lon="5.29245">
        <ele>246.75</ele>
        <time>2025-07-08T09:14:56.965Z</time>
      </trkpt>
      <trkpt lat="45.58981" lon="5.29245">
        <ele>245.7</ele>
        <time>2025-07-08T09:14:57.102Z</time>
      </trkpt>
      <trkpt lat="45.59004" lon="5.29254">
        <ele>245.44</ele>
        <time>2025-07-08T09:14:57.247Z</time>
      </trkpt>
      <trkpt lat="45.59027" lon="5.29263">
        <ele>245.18</ele>
        <time>2025-07-08T09:14:57.400Z</time>
      </trkpt>
      <trkpt lat="45.5905" lon="5.29272">
        <ele>244.98</ele>
        <time>2025-07-08T09:14:57.561Z</time>
      </trkpt>
      <trkpt lat="45.59073" lon="5.29281">
        <ele>244.72</ele>
        <time>2025-07-08T09:14:57.730Z</time>
      </trkpt>
      <trkpt lat="45.59075" lon="5.29275">
        <ele>244.47</ele>
        <time>2025-07-08T09:14:57.901Z</time>
      </trkpt>
      <trkpt lat="45.59094" lon="5.29286">
        <ele>244.14</ele>
        <time>2025-07-08T09:14:58.079Z</time>
      </trkpt>
      <trkpt lat="45.59099" lon="5.29294">
        <ele>243.87</ele>
        <time>2025-07-08T09:14:58.259Z</time>
      </trkpt>
      <trkpt lat="45.59099" lon="5.29314">
        <ele>243.63</ele>
        <time>2025-07-08T09:14:58.444Z</time>
      </trkpt>
      <trkpt lat="45.59107" lon="5.29324">
        <ele>243.36</ele>
        <time>2025-07-08T09:14:58.632Z</time>
      </trkpt>
      <trkpt lat="45.59116" lon="5.29333">
        <ele>243.15</ele>
        <time>2025-07-08T09:14:58.824Z</time>
      </trkpt>
      <trkpt lat="45.59122" lon="5.29339">
        <ele>243</ele>
        <time>2025-07-08T09:14:59.019Z</time>
      </trkpt>
      <trkpt lat="45.59133" lon="5.29348">
        <ele>242.9</ele>
        <time>2025-07-08T09:14:59.218Z</time>
      </trkpt>
      <trkpt lat="45.5915" lon="5.29346">
        <ele>242.85</ele>
        <time>2025-07-08T09:14:59.422Z</time>
      </trkpt>
      <trkpt lat="45.59161" lon="5.2932">
        <ele>242.86</ele>
        <time>2025-07-08T09:14:59.633Z</time>
      </trkpt>
      <trkpt lat="45.59182" lon="5.29307">
        <ele>243.03</ele>
        <time>2025-07-08T09:14:59.852Z</time>
      </trkpt>
      <trkpt lat="45.59191" lon="5.29318">
        <ele>243.21</ele>
        <time>2025-07-08T09:15:00.075Z</time>
      </trkpt>
      <trkpt lat="45.59197" lon="5.2932">
        <ele>243.42</ele>
        <time>2025-07-08T09:15:00.300Z</time>
      </trkpt>
      <trkpt lat="45.592" lon="5.29326">
        <ele>243.68</ele>
        <time>2025-07-08T09:15:00.527Z</time>
      </trkpt>
      <trkpt lat="45.59204" lon="5.29326">
        <ele>243.98</ele>
        <time>2025-07-08T09:15:00.755Z</time>
      </trkpt>
      <trkpt lat="45.59208" lon="5.29329">
        <ele>244.38</ele>
        <time>2025-07-08T09:15:00.985Z</time>
      </trkpt>
      <trkpt lat="45.5921" lon="5.29346">
        <ele>244.92</ele>
        <time>2025-07-08T09:15:01.219Z</time>
      </trkpt>
      <trkpt lat="45.59219" lon="5.29367">
        <ele>245.59</ele>
        <time>2025-07-08T09:15:01.459Z</time>
      </trkpt>
      <trkpt lat="45.59234" lon="5.29389">
        <ele>246.38</ele>
        <time>2025-07-08T09:15:01.706Z</time>
      </trkpt>
      <trkpt lat="45.59254" lon="5.29407">
        <ele>247.22</ele>
        <time>2025-07-08T09:15:01.961Z</time>
      </trkpt>
      <trkpt lat="45.59275" lon="5.29425">
        <ele>248.17</ele>
        <time>2025-07-08T09:15:02.224Z</time>
      </trkpt>
      <trkpt lat="45.59275" lon="5.29425">
        <ele>249.31</ele>
        <time>2025-07-08T09:15:02.487Z</time>
      </trkpt>
      <trkpt lat="45.59295" lon="5.29443">
        <ele>250.55</ele>
        <time>2025-07-08T09:15:02.758Z</time>
      </trkpt>
      <trkpt lat="45.59315" lon="5.29462">
        <ele>252</ele>
        <time>2025-07-08T09:15:03.037Z</time>
      </trkpt>
      <trkpt lat="45.59336" lon="5.2948">
        <ele>253.75</ele>
        <time>2025-07-08T09:15:03.324Z</time>
      </trkpt>
      <trkpt lat="45.59356" lon="5.29498">
        <ele>255.73</ele>
        <time>2025-07-08T09:15:03.619Z</time>
      </trkpt>
      <trkpt lat="45.59368" lon="5.29536">
        <ele>258</ele>
        <time>2025-07-08T09:15:03.924Z</time>
      </trkpt>
      <trkpt lat="45.5938" lon="5.29573">
        <ele>260.65</ele>
        <time>2025-07-08T09:15:04.238Z</time>
      </trkpt>
      <trkpt lat="45.59387" lon="5.29603">
        <ele>263.46</ele>
        <time>2025-07-08T09:15:04.560Z</time>
      </trkpt>
      <trkpt lat="45.59395" lon="5.29633">
        <ele>266.31</ele>
        <time>2025-07-08T09:15:04.889Z</time>
      </trkpt>
      <trkpt lat="45.59399" lon="5.29661">
        <ele>269.31</ele>
        <time>2025-07-08T09:15:05.225Z</time>
      </trkpt>
      <trkpt lat="45.59403" lon="5.29689">
        <ele>272.48</ele>
        <time>2025-07-08T09:15:05.568Z</time>
      </trkpt>
      <trkpt lat="45.59406" lon="5.29717">
        <ele>275.75</ele>
        <time>2025-07-08T09:15:05.917Z</time>
      </trkpt>
      <trkpt lat="45.59408" lon="5.29745">
        <ele>279.02</ele>
        <time>2025-07-08T09:15:06.273Z</time>
      </trkpt>
      <trkpt lat="45.59403" lon="5.29767">
        <ele>282.15</ele>
        <time>2025-07-08T09:15:06.634Z</time>
      </trkpt>
      <trkpt lat="45.59399" lon="5.2979">
        <ele>285.31</ele>
        <time>2025-07-08T09:15:07.001Z</time>
      </trkpt>
      <trkpt lat="45.59389" lon="5.29823">
        <ele>288.5</ele>
        <time>2025-07-08T09:15:07.376Z</time>
      </trkpt>
      <trkpt lat="45.5938" lon="5.29856">
        <ele>291.63</ele>
        <time>2025-07-08T09:15:07.759Z</time>
      </trkpt>
      <trkpt lat="45.59391" lon="5.29882">
        <ele>295.13</ele>
        <time>2025-07-08T09:15:08.149Z</time>
      </trkpt>
      <trkpt lat="45.59401" lon="5.29908">
        <ele>298.4</ele>
        <time>2025-07-08T09:15:08.546Z</time>
      </trkpt>
      <trkpt lat="45.59387" lon="5.29929">
        <ele>301.51</ele>
        <time>2025-07-08T09:15:08.950Z</time>
      </trkpt>
      <trkpt lat="45.59374" lon="5.2995">
        <ele>304.29</ele>
        <time>2025-07-08T09:15:09.361Z</time>
      </trkpt>
      <trkpt lat="45.59373" lon="5.29951">
        <ele>306.77</ele>
        <time>2025-07-08T09:15:09.772Z</time>
      </trkpt>
      <trkpt lat="45.59387" lon="5.29929">
        <ele>308.97</ele>
        <time>2025-07-08T09:15:10.190Z</time>
      </trkpt>
      <trkpt lat="45.59401" lon="5.29908">
        <ele>298.4</ele>
        <time>2025-07-08T09:15:10.615Z</time>
      </trkpt>
      <trkpt lat="45.59409" lon="5.29933">
        <ele>313.14</ele>
        <time>2025-07-08T09:15:11.046Z</time>
      </trkpt>
      <trkpt lat="45.59416" lon="5.29957">
        <ele>315.32</ele>
        <time>2025-07-08T09:15:11.483Z</time>
      </trkpt>
      <trkpt lat="45.5943" lon="5.29984">
        <ele>317.2</ele>
        <time>2025-07-08T09:15:11.928Z</time>
      </trkpt>
      <trkpt lat="45.59444" lon="5.30011">
        <ele>318.84</ele>
        <time>2025-07-08T09:15:12.381Z</time>
      </trkpt>
      <trkpt lat="45.59463" lon="5.30036">
        <ele>320.21</ele>
        <time>2025-07-08T09:15:12.843Z</time>
      </trkpt>
      <trkpt lat="45.59481" lon="5.30061">
        <ele>321.34</ele>
        <time>2025-07-08T09:15:13.313Z</time>
      </trkpt>
      <trkpt lat="45.595" lon="5.30086">
        <ele>322.17</ele>
        <time>2025-07-08T09:15:13.792Z</time>
      </trkpt>
      <trkpt lat="45.59504" lon="5.30118">
        <ele>323.08</ele>
        <time>2025-07-08T09:15:14.278Z</time>
      </trkpt>
      <trkpt lat="45.59522" lon="5.30145">
        <ele>323.08</ele>
        <time>2025-07-08T09:15:14.773Z</time>
      </trkpt>
      <trkpt lat="45.59538" lon="5.30171">
        <ele>322.96</ele>
        <time>2025-07-08T09:15:15.276Z</time>
      </trkpt>
      <trkpt lat="45.59539" lon="5.30172">
        <ele>323</ele>
        <time>2025-07-08T09:15:15.779Z</time>
      </trkpt>
      <trkpt lat="45.59551" lon="5.30191">
        <ele>322.87</ele>
        <time>2025-07-08T09:15:16.289Z</time>
      </trkpt>
      <trkpt lat="45.59563" lon="5.30213">
        <ele>322.72</ele>
        <time>2025-07-08T09:15:16.805Z</time>
      </trkpt>
      <trkpt lat="45.59575" lon="5.30234">
        <ele>322.64</ele>
        <time>2025-07-08T09:15:17.327Z</time>
      </trkpt>
      <trkpt lat="45.59588" lon="5.30251">
        <ele>322.48</ele>
        <time>2025-07-08T09:15:17.855Z</time>
      </trkpt>
      <trkpt lat="45.59608" lon="5.30264">
        <ele>322.23</ele>
        <time>2025-07-08T09:15:18.391Z</time>
      </trkpt>
      <trkpt lat="45.59629" lon="5.30277">
        <ele>322</ele>
        <time>2025-07-08T09:15:18.934Z</time>
      </trkpt>
      <trkpt lat="45.59652" lon="5.30301">
        <ele>321.85</ele>
        <time>2025-07-08T09:15:19.486Z</time>
      </trkpt>
      <trkpt lat="45.59675" lon="5.30324">
        <ele>321.53</ele>
        <time>2025-07-08T09:15:20.048Z</time>
      </trkpt>
      <trkpt lat="45.59697" lon="5.30348">
        <ele>321.3</ele>
        <time>2025-07-08T09:15:20.619Z</time>
      </trkpt>
      <trkpt lat="45.59713" lon="5.30369">
        <ele>321.41</ele>
        <time>2025-07-08T09:15:21.198Z</time>
      </trkpt>
      <trkpt lat="45.5973" lon="5.30391">
        <ele>321.73</ele>
        <time>2025-07-08T09:15:21.784Z</time>
      </trkpt>
      <trkpt lat="45.59747" lon="5.30393">
        <ele>322.13</ele>
        <time>2025-07-08T09:15:22.376Z</time>
      </trkpt>
      <trkpt lat="45.59775" lon="5.30378">
        <ele>322.33</ele>
        <time>2025-07-08T09:15:22.978Z</time>
      </trkpt>
      <trkpt lat="45.59803" lon="5.30376">
        <ele>322.97</ele>
        <time>2025-07-08T09:15:23.589Z</time>
      </trkpt>
      <trkpt lat="45.59818" lon="5.30389">
        <ele>323.9</ele>
        <time>2025-07-08T09:15:24.206Z</time>
      </trkpt>
      <trkpt lat="45.5982" lon="5.30397">
        <ele>325.05</ele>
        <time>2025-07-08T09:15:24.825Z</time>
      </trkpt>
      <trkpt lat="45.59818" lon="5.30436">
        <ele>326.67</ele>
        <time>2025-07-08T09:15:25.453Z</time>
      </trkpt>
      <trkpt lat="45.59813" lon="5.30467">
        <ele>328.39</ele>
        <time>2025-07-08T09:15:26.089Z</time>
      </trkpt>
      <trkpt lat="45.59809" lon="5.30498">
        <ele>330.3</ele>
        <time>2025-07-08T09:15:26.732Z</time>
      </trkpt>
      <trkpt lat="45.59815" lon="5.30538">
        <ele>332.2</ele>
        <time>2025-07-08T09:15:27.385Z</time>
      </trkpt>
      <trkpt lat="45.59822" lon="5.30578">
        <ele>334.42</ele>
        <time>2025-07-08T09:15:28.047Z</time>
      </trkpt>
      <trkpt lat="45.59828" lon="5.30618">
        <ele>336.92</ele>
        <time>2025-07-08T09:15:28.719Z</time>
      </trkpt>
      <trkpt lat="45.59852" lon="5.30616">
        <ele>338.85</ele>
        <time>2025-07-08T09:15:29.399Z</time>
      </trkpt>
      <trkpt lat="45.59867" lon="5.30627">
        <ele>340.97</ele>
        <time>2025-07-08T09:15:30.084Z</time>
      </trkpt>
      <trkpt lat="45.5988" lon="5.30654">
        <ele>343.23</ele>
        <time>2025-07-08T09:15:30.777Z</time>
      </trkpt>
      <trkpt lat="45.59893" lon="5.3068">
        <ele>345.26</ele>
        <time>2025-07-08T09:15:31.477Z</time>
      </trkpt>
      <trkpt lat="45.59893" lon="5.30713">
        <ele>347.34</ele>
        <time>2025-07-08T09:15:32.185Z</time>
      </trkpt>
      <trkpt lat="45.59882" lon="5.30736">
        <ele>349.65</ele>
        <time>2025-07-08T09:15:32.900Z</time>
      </trkpt>
      <trkpt lat="45.59871" lon="5.30773">
        <ele>351.99</ele>
        <time>2025-07-08T09:15:33.624Z</time>
      </trkpt>
      <trkpt lat="45.5986" lon="5.30809">
        <ele>353.91</ele>
        <time>2025-07-08T09:15:34.357Z</time>
      </trkpt>
      <trkpt lat="45.59843" lon="5.30831">
        <ele>355.72</ele>
        <time>2025-07-08T09:15:35.098Z</time>
      </trkpt>
      <trkpt lat="45.59839" lon="5.30861">
        <ele>357.21</ele>
        <time>2025-07-08T09:15:35.846Z</time>
      </trkpt>
      <trkpt lat="45.59826" lon="5.30876">
        <ele>358.76</ele>
        <time>2025-07-08T09:15:36.599Z</time>
      </trkpt>
      <trkpt lat="45.59809" lon="5.30882">
        <ele>360.15</ele>
        <time>2025-07-08T09:15:37.358Z</time>
      </trkpt>
      <trkpt lat="45.5979" lon="5.30904">
        <ele>361.37</ele>
        <time>2025-07-08T09:15:38.126Z</time>
      </trkpt>
      <trkpt lat="45.59781" lon="5.30921">
        <ele>362.36</ele>
        <time>2025-07-08T09:15:38.898Z</time>
      </trkpt>
      <trkpt lat="45.59798" lon="5.30955">
        <ele>363.01</ele>
        <time>2025-07-08T09:15:39.680Z</time>
      </trkpt>
      <trkpt lat="45.59812" lon="5.30971">
        <ele>363.56</ele>
        <time>2025-07-08T09:15:40.468Z</time>
      </trkpt>
      <trkpt lat="45.59826" lon="5.30987">
        <ele>364.04</ele>
        <time>2025-07-08T09:15:41.262Z</time>
      </trkpt>
      <trkpt lat="45.59839" lon="5.31007">
        <ele>364.4</ele>
        <time>2025-07-08T09:15:42.063Z</time>
      </trkpt>
      <trkpt lat="45.59843" lon="5.31028">
        <ele>364.68</ele>
        <time>2025-07-08T09:15:42.869Z</time>
      </trkpt>
      <trkpt lat="45.59844" lon="5.31072">
        <ele>364.9</ele>
        <time>2025-07-08T09:15:43.685Z</time>
      </trkpt>
      <trkpt lat="45.59845" lon="5.31116">
        <ele>365.1</ele>
        <time>2025-07-08T09:15:44.511Z</time>
      </trkpt>
      <trkpt lat="45.59837" lon="5.31155">
        <ele>365.37</ele>
        <time>2025-07-08T09:15:45.347Z</time>
      </trkpt>
      <trkpt lat="45.59828" lon="5.31195">
        <ele>365.62</ele>
        <time>2025-07-08T09:15:46.193Z</time>
      </trkpt>
      <trkpt lat="45.5982" lon="5.31234">
        <ele>365.71</ele>
        <time>2025-07-08T09:15:47.048Z</time>
      </trkpt>
      <trkpt lat="45.59813" lon="5.31258">
        <ele>365.82</ele>
        <time>2025-07-08T09:15:47.909Z</time>
      </trkpt>
      <trkpt lat="45.59813" lon="5.31258">
        <ele>365.95</ele>
        <time>2025-07-08T09:15:48.770Z</time>
      </trkpt>
      <trkpt lat="45.59785" lon="5.3124">
        <ele>366.12</ele>
        <time>2025-07-08T09:15:49.641Z</time>
      </trkpt>
      <trkpt lat="45.5978" lon="5.31275">
        <ele>366.31</ele>
        <time>2025-07-08T09:15:50.521Z</time>
      </trkpt>
      <trkpt lat="45.59774" lon="5.31309">
        <ele>366.47</ele>
        <time>2025-07-08T09:15:51.409Z</time>
      </trkpt>
      <trkpt lat="45.59768" lon="5.31343">
        <ele>366.81</ele>
        <time>2025-07-08T09:15:52.305Z</time>
      </trkpt>
      <trkpt lat="45.59763" lon="5.31376">
        <ele>367.25</ele>
        <time>2025-07-08T09:15:53.209Z</time>
      </trkpt>
      <trkpt lat="45.59763" lon="5.31377">
        <ele>367.65</ele>
        <time>2025-07-08T09:15:54.113Z</time>
      </trkpt>
      <trkpt lat="45.59756" lon="5.31419">
        <ele>368.18</ele>
        <time>2025-07-08T09:15:55.027Z</time>
      </trkpt>
      <trkpt lat="45.59749" lon="5.31461">
        <ele>368.76</ele>
        <time>2025-07-08T09:15:55.951Z</time>
      </trkpt>
      <trkpt lat="45.59747" lon="5.315">
        <ele>369.32</ele>
        <time>2025-07-08T09:15:56.885Z</time>
      </trkpt>
      <trkpt lat="45.59775" lon="5.31516">
        <ele>370</ele>
        <time>2025-07-08T09:15:57.829Z</time>
      </trkpt>
      <trkpt lat="45.59803" lon="5.31531">
        <ele>370.63</ele>
        <time>2025-07-08T09:15:58.783Z</time>
      </trkpt>
      <trkpt lat="45.5983" lon="5.31547">
        <ele>371.25</ele>
        <time>2025-07-08T09:15:59.747Z</time>
      </trkpt>
      <trkpt lat="45.59858" lon="5.31562">
        <ele>371.94</ele>
        <time>2025-07-08T09:16:00.721Z</time>
      </trkpt>
      <trkpt lat="45.59886" lon="5.31578">
        <ele>372.64</ele>
        <time>2025-07-08T09:16:01.704Z</time>
      </trkpt>
      <trkpt lat="45.59886" lon="5.31578">
        <ele>373.27</ele>
        <time>2025-07-08T09:16:02.688Z</time>
      </trkpt>
      <trkpt lat="45.59909" lon="5.31591">
        <ele>374.04</ele>
        <time>2025-07-08T09:16:03.680Z</time>
      </trkpt>
      <trkpt lat="45.59931" lon="5.31603">
        <ele>374.75</ele>
        <time>2025-07-08T09:16:04.680Z</time>
      </trkpt>
      <trkpt lat="45.59953" lon="5.31617">
        <ele>375.34</ele>
        <time>2025-07-08T09:16:05.688Z</time>
      </trkpt>
      <trkpt lat="45.59974" lon="5.31632">
        <ele>375.81</ele>
        <time>2025-07-08T09:16:06.703Z</time>
      </trkpt>
      <trkpt lat="45.59996" lon="5.31646">
        <ele>376.13</ele>
        <time>2025-07-08T09:16:07.726Z</time>
      </trkpt>
      <trkpt lat="45.60024" lon="5.31657">
        <ele>376.45</ele>
        <time>2025-07-08T09:16:08.759Z</time>
      </trkpt>
      <trkpt lat="45.60051" lon="5.31667">
        <ele>376.75</ele>
        <time>2025-07-08T09:16:09.802Z</time>
      </trkpt>
      <trkpt lat="45.60072" lon="5.31672">
        <ele>376.97</ele>
        <time>2025-07-08T09:16:10.851Z</time>
      </trkpt>
      <trkpt lat="45.60092" lon="5.31676">
        <ele>377.14</ele>
        <time>2025-07-08T09:16:11.907Z</time>
      </trkpt>
      <trkpt lat="45.60097" lon="5.31685">
        <ele>377.23</ele>
        <time>2025-07-08T09:16:12.966Z</time>
      </trkpt>
      <trkpt lat="45.60095" lon="5.31715">
        <ele>377.27</ele>
        <time>2025-07-08T09:16:14.032Z</time>
      </trkpt>
      <trkpt lat="45.60094" lon="5.31745">
        <ele>377.22</ele>
        <time>2025-07-08T09:16:15.105Z</time>
      </trkpt>
      <trkpt lat="45.60099" lon="5.31769">
        <ele>377.08</ele>
        <time>2025-07-08T09:16:16.184Z</time>
      </trkpt>
      <trkpt lat="45.60103" lon="5.31794">
        <ele>376.86</ele>
        <time>2025-07-08T09:16:17.269Z</time>
      </trkpt>
      <trkpt lat="45.60129" lon="5.31807">
        <ele>376.61</ele>
        <time>2025-07-08T09:16:18.363Z</time>
      </trkpt>
      <trkpt lat="45.60154" lon="5.3182">
        <ele>376.27</ele>
        <time>2025-07-08T09:16:19.466Z</time>
      </trkpt>
      <trkpt lat="45.60178" lon="5.31838">
        <ele>375.81</ele>
        <time>2025-07-08T09:16:20.578Z</time>
      </trkpt>
      <trkpt lat="45.60202" lon="5.31856">
        <ele>375.25</ele>
        <time>2025-07-08T09:16:21.699Z</time>
      </trkpt>
      <trkpt lat="45.60219" lon="5.31878">
        <ele>374.6</ele>
        <time>2025-07-08T09:16:22.828Z</time>
      </trkpt>
      <trkpt lat="45.60236" lon="5.31899">
        <ele>373.84</ele>
        <time>2025-07-08T09:16:23.964Z</time>
      </trkpt>
      <trkpt lat="45.60246" lon="5.31919">
        <ele>373.08</ele>
        <time>2025-07-08T09:16:25.106Z</time>
      </trkpt>
      <trkpt lat="45.60255" lon="5.31938">
        <ele>372.28</ele>
        <time>2025-07-08T09:16:26.253Z</time>
      </trkpt>
      <trkpt lat="45.60275" lon="5.31968">
        <ele>371.27</ele>
        <time>2025-07-08T09:16:27.410Z</time>
      </trkpt>
      <trkpt lat="45.60294" lon="5.31998">
        <ele>370.36</ele>
        <time>2025-07-08T09:16:28.576Z</time>
      </trkpt>
      <trkpt lat="45.60301" lon="5.3203">
        <ele>369.64</ele>
        <time>2025-07-08T09:16:29.750Z</time>
      </trkpt>
      <trkpt lat="45.60308" lon="5.3206">
        <ele>368.99</ele>
        <time>2025-07-08T09:16:30.932Z</time>
      </trkpt>
      <trkpt lat="45.60308" lon="5.32061">
        <ele>368.51</ele>
        <time>2025-07-08T09:16:32.114Z</time>
      </trkpt>
      <trkpt lat="45.60315" lon="5.32092">
        <ele>367.99</ele>
        <time>2025-07-08T09:16:33.304Z</time>
      </trkpt>
      <trkpt lat="45.60316" lon="5.32118">
        <ele>367.64</ele>
        <time>2025-07-08T09:16:34.500Z</time>
      </trkpt>
      <trkpt lat="45.60318" lon="5.32144">
        <ele>367.41</ele>
        <time>2025-07-08T09:16:35.702Z</time>
      </trkpt>
      <trkpt lat="45.60315" lon="5.32183">
        <ele>367.38</ele>
        <time>2025-07-08T09:16:36.913Z</time>
      </trkpt>
      <trkpt lat="45.60313" lon="5.32223">
        <ele>367.44</ele>
        <time>2025-07-08T09:16:38.133Z</time>
      </trkpt>
      <trkpt lat="45.60311" lon="5.32262">
        <ele>367.46</ele>
        <time>2025-07-08T09:16:39.362Z</time>
      </trkpt>
      <trkpt lat="45.6031" lon="5.32307">
        <ele>367.65</ele>
        <time>2025-07-08T09:16:40.602Z</time>
      </trkpt>
      <trkpt lat="45.60308" lon="5.32352">
        <ele>367.96</ele>
        <time>2025-07-08T09:16:41.852Z</time>
      </trkpt>
      <trkpt lat="45.60307" lon="5.32397">
        <ele>368.21</ele>
        <time>2025-07-08T09:16:43.113Z</time>
      </trkpt>
      <trkpt lat="45.60306" lon="5.32441">
        <ele>368.41</ele>
        <time>2025-07-08T09:16:44.384Z</time>
      </trkpt>
      <trkpt lat="45.60304" lon="5.32486">
        <ele>368.57</ele>
        <time>2025-07-08T09:16:45.666Z</time>
      </trkpt>
      <trkpt lat="45.60303" lon="5.32531">
        <ele>368.69</ele>
        <time>2025-07-08T09:16:46.958Z</time>
      </trkpt>
      <trkpt lat="45.60302" lon="5.32576">
        <ele>368.66</ele>
        <time>2025-07-08T09:16:48.261Z</time>
      </trkpt>
      <trkpt lat="45.603" lon="5.3262">
        <ele>368.63</ele>
        <time>2025-07-08T09:16:49.574Z</time>
      </trkpt>
      <trkpt lat="45.60298" lon="5.32635">
        <ele>368.43</ele>
        <time>2025-07-08T09:16:50.891Z</time>
      </trkpt>
      <trkpt lat="45.60315" lon="5.32631">
        <ele>368</ele>
        <time>2025-07-08T09:16:52.214Z</time>
      </trkpt>
      <trkpt lat="45.60333" lon="5.32627">
        <ele>367.4</ele>
        <time>2025-07-08T09:16:53.542Z</time>
      </trkpt>
      <trkpt lat="45.60359" lon="5.32618">
        <ele>366.64</ele>
        <time>2025-07-08T09:16:54.880Z</time>
      </trkpt>
      <trkpt lat="45.60385" lon="5.32609">
        <ele>365.92</ele>
        <time>2025-07-08T09:16:56.227Z</time>
      </trkpt>
      <trkpt lat="45.60412" lon="5.32601">
        <ele>365.16</ele>
        <time>2025-07-08T09:16:57.583Z</time>
      </trkpt>
      <trkpt lat="45.60433" lon="5.32599">
        <ele>364.18</ele>
        <time>2025-07-08T09:16:58.946Z</time>
      </trkpt>
      <trkpt lat="45.60451" lon="5.32591">
        <ele>363.04</ele>
        <time>2025-07-08T09:17:00.315Z</time>
      </trkpt>
      <trkpt lat="45.60468" lon="5.32584">
        <ele>361.78</ele>
        <time>2025-07-08T09:17:01.690Z</time>
      </trkpt>
      <trkpt lat="45.60493" lon="5.32562">
        <ele>360.4</ele>
        <time>2025-07-08T09:17:03.075Z</time>
      </trkpt>
      <trkpt lat="45.60515" lon="5.32548">
        <ele>359.03</ele>
        <time>2025-07-08T09:17:04.468Z</time>
      </trkpt>
      <trkpt lat="45.60536" lon="5.32534">
        <ele>357.56</ele>
        <time>2025-07-08T09:17:05.868Z</time>
      </trkpt>
      <trkpt lat="45.60557" lon="5.32529">
        <ele>356</ele>
        <time>2025-07-08T09:17:07.275Z</time>
      </trkpt>
      <trkpt lat="45.60577" lon="5.32524">
        <ele>354.53</ele>
        <time>2025-07-08T09:17:08.689Z</time>
      </trkpt>
      <trkpt lat="45.60588" lon="5.32502">
        <ele>353.37</ele>
        <time>2025-07-08T09:17:10.109Z</time>
      </trkpt>
      <trkpt lat="45.60593" lon="5.32474">
        <ele>352.46</ele>
        <time>2025-07-08T09:17:11.536Z</time>
      </trkpt>
      <trkpt lat="45.60599" lon="5.32446">
        <ele>351.8</ele>
        <time>2025-07-08T09:17:12.970Z</time>
      </trkpt>
      <trkpt lat="45.60609" lon="5.32423">
        <ele>351.27</ele>
        <time>2025-07-08T09:17:14.411Z</time>
      </trkpt>
      <trkpt lat="45.60622" lon="5.32401">
        <ele>350.89</ele>
        <time>2025-07-08T09:17:15.858Z</time>
      </trkpt>
      <trkpt lat="45.60637" lon="5.32388">
        <ele>350.59</ele>
        <time>2025-07-08T09:17:17.311Z</time>
      </trkpt>
      <trkpt lat="45.60664" lon="5.32372">
        <ele>350.6</ele>
        <time>2025-07-08T09:17:18.774Z</time>
      </trkpt>
      <trkpt lat="45.60691" lon="5.32356">
        <ele>350.82</ele>
        <time>2025-07-08T09:17:20.246Z</time>
      </trkpt>
      <trkpt lat="45.60691" lon="5.32333">
        <ele>350.61</ele>
        <time>2025-07-08T09:17:21.724Z</time>
      </trkpt>
      <trkpt lat="45.60695" lon="5.323">
        <ele>350.55</ele>
        <time>2025-07-08T09:17:23.210Z</time>
      </trkpt>
      <trkpt lat="45.60699" lon="5.32268">
        <ele>350.48</ele>
        <time>2025-07-08T09:17:24.703Z</time>
      </trkpt>
      <trkpt lat="45.60704" lon="5.32236">
        <ele>350.55</ele>
        <time>2025-07-08T09:17:26.204Z</time>
      </trkpt>
      <trkpt lat="45.60706" lon="5.32192">
        <ele>350.6</ele>
        <time>2025-07-08T09:17:27.715Z</time>
      </trkpt>
      <trkpt lat="45.60708" lon="5.32147">
        <ele>350.48</ele>
        <time>2025-07-08T09:17:29.237Z</time>
      </trkpt>
      <trkpt lat="45.6071" lon="5.32103">
        <ele>350.38</ele>
        <time>2025-07-08T09:17:30.769Z</time>
      </trkpt>
      <trkpt lat="45.60712" lon="5.32059">
        <ele>350.46</ele>
        <time>2025-07-08T09:17:32.312Z</time>
      </trkpt>
      <trkpt lat="45.60714" lon="5.32015">
        <ele>350.45</ele>
        <time>2025-07-08T09:17:33.865Z</time>
      </trkpt>
      <trkpt lat="45.60713" lon="5.31988">
        <ele>350.4</ele>
        <time>2025-07-08T09:17:35.424Z</time>
      </trkpt>
      <trkpt lat="45.60712" lon="5.31961">
        <ele>350.29</ele>
        <time>2025-07-08T09:17:36.989Z</time>
      </trkpt>
      <trkpt lat="45.60719" lon="5.31927">
        <ele>350.18</ele>
        <time>2025-07-08T09:17:38.563Z</time>
      </trkpt>
      <trkpt lat="45.60717" lon="5.31893">
        <ele>349.98</ele>
        <time>2025-07-08T09:17:40.145Z</time>
      </trkpt>
      <trkpt lat="45.6071" lon="5.3185">
        <ele>349.7</ele>
        <time>2025-07-08T09:17:41.737Z</time>
      </trkpt>
      <trkpt lat="45.60708" lon="5.31843">
        <ele>349.47</ele>
        <time>2025-07-08T09:17:43.331Z</time>
      </trkpt>
      <trkpt lat="45.60704" lon="5.31824">
        <ele>349.2</ele>
        <time>2025-07-08T09:17:44.929Z</time>
      </trkpt>
      <trkpt lat="45.60703" lon="5.3179">
        <ele>349.03</ele>
        <time>2025-07-08T09:17:46.535Z</time>
      </trkpt>
      <trkpt lat="45.60702" lon="5.31755">
        <ele>348.71</ele>
        <time>2025-07-08T09:17:48.150Z</time>
      </trkpt>
      <trkpt lat="45.60702" lon="5.31721">
        <ele>348.26</ele>
        <time>2025-07-08T09:17:49.773Z</time>
      </trkpt>
      <trkpt lat="45.607" lon="5.31715">
        <ele>347.83</ele>
        <time>2025-07-08T09:17:51.397Z</time>
      </trkpt>
      <trkpt lat="45.607" lon="5.31714">
        <ele>347.4</ele>
        <time>2025-07-08T09:17:53.021Z</time>
      </trkpt>
      <trkpt lat="45.60695" lon="5.31683">
        <ele>346.75</ele>
        <time>2025-07-08T09:17:54.653Z</time>
      </trkpt>
      <trkpt lat="45.6069" lon="5.31653">
        <ele>346.15</ele>
        <time>2025-07-08T09:17:56.292Z</time>
      </trkpt>
      <trkpt lat="45.60684" lon="5.31622">
        <ele>345.61</ele>
        <time>2025-07-08T09:17:57.938Z</time>
      </trkpt>
      <trkpt lat="45.60684" lon="5.31584">
        <ele>345.18</ele>
        <time>2025-07-08T09:17:59.593Z</time>
      </trkpt>
      <trkpt lat="45.60683" lon="5.31545">
        <ele>344.85</ele>
        <time>2025-07-08T09:18:01.257Z</time>
      </trkpt>
      <trkpt lat="45.60682" lon="5.31507">
        <ele>344.6</ele>
        <time>2025-07-08T09:18:02.930Z</time>
      </trkpt>
      <trkpt lat="45.60678" lon="5.31468">
        <ele>344.34</ele>
        <time>2025-07-08T09:18:04.613Z</time>
      </trkpt>
      <trkpt lat="45.60674" lon="5.31429">
        <ele>344.15</ele>
        <time>2025-07-08T09:18:06.305Z</time>
      </trkpt>
      <trkpt lat="45.60669" lon="5.3139">
        <ele>344.05</ele>
        <time>2025-07-08T09:18:08.006Z</time>
      </trkpt>
      <trkpt lat="45.60665" lon="5.31352">
        <ele>343.94</ele>
        <time>2025-07-08T09:18:09.716Z</time>
      </trkpt>
      <trkpt lat="45.60661" lon="5.31313">
        <ele>343.89</ele>
        <time>2025-07-08T09:18:11.435Z</time>
      </trkpt>
      <trkpt lat="45.60661" lon="5.31313">
        <ele>343.85</ele>
        <time>2025-07-08T09:18:13.154Z</time>
      </trkpt>
      <trkpt lat="45.60658" lon="5.31274">
        <ele>343.92</ele>
        <time>2025-07-08T09:18:14.883Z</time>
      </trkpt>
      <trkpt lat="45.60654" lon="5.31234">
        <ele>343.92</ele>
        <time>2025-07-08T09:18:16.621Z</time>
      </trkpt>
      <trkpt lat="45.60656" lon="5.3119">
        <ele>343.94</ele>
        <time>2025-07-08T09:18:18.369Z</time>
      </trkpt>
      <trkpt lat="45.60657" lon="5.31146">
        <ele>343.9</ele>
        <time>2025-07-08T09:18:20.127Z</time>
      </trkpt>
      <trkpt lat="45.60658" lon="5.31102">
        <ele>343.85</ele>
        <time>2025-07-08T09:18:21.896Z</time>
      </trkpt>
      <trkpt lat="45.6066" lon="5.31058">
        <ele>343.88</ele>
        <time>2025-07-08T09:18:23.675Z</time>
      </trkpt>
      <trkpt lat="45.60661" lon="5.31015">
        <ele>343.91</ele>
        <time>2025-07-08T09:18:25.464Z</time>
      </trkpt>
      <trkpt lat="45.60664" lon="5.30984">
        <ele>343.82</ele>
        <time>2025-07-08T09:18:27.261Z</time>
      </trkpt>
      <trkpt lat="45.60668" lon="5.30953">
        <ele>343.73</ele>
        <time>2025-07-08T09:18:29.065Z</time>
      </trkpt>
      <trkpt lat="45.60672" lon="5.30923">
        <ele>343.56</ele>
        <time>2025-07-08T09:18:30.876Z</time>
      </trkpt>
      <trkpt lat="45.60679" lon="5.30888">
        <ele>343.31</ele>
        <time>2025-07-08T09:18:32.696Z</time>
      </trkpt>
      <trkpt lat="45.60686" lon="5.30853">
        <ele>342.9</ele>
        <time>2025-07-08T09:18:34.524Z</time>
      </trkpt>
      <trkpt lat="45.60694" lon="5.30818">
        <ele>342.51</ele>
        <time>2025-07-08T09:18:36.361Z</time>
      </trkpt>
      <trkpt lat="45.60701" lon="5.30784">
        <ele>342.11</ele>
        <time>2025-07-08T09:18:38.206Z</time>
      </trkpt>
      <trkpt lat="45.60708" lon="5.30749">
        <ele>341.74</ele>
        <time>2025-07-08T09:18:40.060Z</time>
      </trkpt>
      <trkpt lat="45.60712" lon="5.30723">
        <ele>341.24</ele>
        <time>2025-07-08T09:18:41.920Z</time>
      </trkpt>
      <trkpt lat="45.60717" lon="5.30698">
        <ele>340.56</ele>
        <time>2025-07-08T09:18:43.786Z</time>
      </trkpt>
      <trkpt lat="45.60693" lon="5.30687">
        <ele>339.61</ele>
        <time>2025-07-08T09:18:45.660Z</time>
      </trkpt>
      <trkpt lat="45.60691" lon="5.30702">
        <ele>338.74</ele>
        <time>2025-07-08T09:18:47.538Z</time>
      </trkpt>
      <trkpt lat="45.60684" lon="5.30719">
        <ele>337.65</ele>
        <time>2025-07-08T09:18:49.420Z</time>
      </trkpt>
      <trkpt lat="45.60658" lon="5.30715">
        <ele>336.28</ele>
        <time>2025-07-08T09:18:51.311Z</time>
      </trkpt>
      <trkpt lat="45.60631" lon="5.3071">
        <ele>334.98</ele>
        <time>2025-07-08T09:18:53.211Z</time>
      </trkpt>
      <trkpt lat="45.60627" lon="5.30715">
        <ele>333.65</ele>
        <time>2025-07-08T09:18:55.113Z</time>
      </trkpt>
      <trkpt lat="45.60618" lon="5.30756">
        <ele>332.09</ele>
        <time>2025-07-08T09:18:57.025Z</time>
      </trkpt>
      <trkpt lat="45.60603" lon="5.30775">
        <ele>330.52</ele>
        <time>2025-07-08T09:18:58.944Z</time>
      </trkpt>
      <trkpt lat="45.6059" lon="5.30777">
        <ele>328.9</ele>
        <time>2025-07-08T09:19:00.867Z</time>
      </trkpt>
      <trkpt lat="45.60573" lon="5.30788">
        <ele>327.22</ele>
        <time>2025-07-08T09:19:02.796Z</time>
      </trkpt>
      <trkpt lat="45.60556" lon="5.30798">
        <ele>325.41</ele>
        <time>2025-07-08T09:19:04.732Z</time>
      </trkpt>
      <trkpt lat="45.60528" lon="5.30805">
        <ele>323.44</ele>
        <time>2025-07-08T09:19:06.677Z</time>
      </trkpt>
      <trkpt lat="45.605" lon="5.30811">
        <ele>321.22</ele>
        <time>2025-07-08T09:19:08.631Z</time>
      </trkpt>
      <trkpt lat="45.60478" lon="5.30809">
        <ele>318.94</ele>
        <time>2025-07-08T09:19:10.593Z</time>
      </trkpt>
      <trkpt lat="45.60457" lon="5.30807">
        <ele>316.61</ele>
        <time>2025-07-08T09:19:12.562Z</time>
      </trkpt>
      <trkpt lat="45.60436" lon="5.30805">
        <ele>314.47</ele>
        <time>2025-07-08T09:19:14.538Z</time>
      </trkpt>
      <trkpt lat="45.60419" lon="5.30797">
        <ele>312.54</ele>
        <time>2025-07-08T09:19:16.520Z</time>
      </trkpt>
      <trkpt lat="45.60403" lon="5.3079">
        <ele>310.64</ele>
        <time>2025-07-08T09:19:18.507Z</time>
      </trkpt>
      <trkpt lat="45.60387" lon="5.3077">
        <ele>308.78</ele>
        <time>2025-07-08T09:19:20.501Z</time>
      </trkpt>
      <trkpt lat="45.6037" lon="5.3075">
        <ele>306.9</ele>
        <time>2025-07-08T09:19:22.503Z</time>
      </trkpt>
      <trkpt lat="45.60354" lon="5.3073">
        <ele>305.25</ele>
        <time>2025-07-08T09:19:24.512Z</time>
      </trkpt>
      <trkpt lat="45.60343" lon="5.30713">
        <ele>303.77</ele>
        <time>2025-07-08T09:19:26.526Z</time>
      </trkpt>
      <trkpt lat="45.60331" lon="5.30696">
        <ele>302.38</ele>
        <time>2025-07-08T09:19:28.546Z</time>
      </trkpt>
      <trkpt lat="45.6032" lon="5.3068">
        <ele>301.09</ele>
        <time>2025-07-08T09:19:30.571Z</time>
      </trkpt>
      <trkpt lat="45.60294" lon="5.3067">
        <ele>299.71</ele>
        <time>2025-07-08T09:19:32.605Z</time>
      </trkpt>
      <trkpt lat="45.60269" lon="5.30654">
        <ele>298.42</ele>
        <time>2025-07-08T09:19:34.648Z</time>
      </trkpt>
      <trkpt lat="45.60245" lon="5.30638">
        <ele>297.28</ele>
        <time>2025-07-08T09:19:36.700Z</time>
      </trkpt>
      <trkpt lat="45.60222" lon="5.30632">
        <ele>296.27</ele>
        <time>2025-07-08T09:19:38.760Z</time>
      </trkpt>
      <trkpt lat="45.602" lon="5.30626">
        <ele>295.32</ele>
        <time>2025-07-08T09:19:40.827Z</time>
      </trkpt>
      <trkpt lat="45.60178" lon="5.3062">
        <ele>294.18</ele>
        <time>2025-07-08T09:19:42.902Z</time>
      </trkpt>
      <trkpt lat="45.6015" lon="5.3061">
        <ele>292.96</ele>
        <time>2025-07-08T09:19:44.986Z</time>
      </trkpt>
      <trkpt lat="45.60129" lon="5.30589">
        <ele>291.91</ele>
        <time>2025-07-08T09:19:47.079Z</time>
      </trkpt>
      <trkpt lat="45.60107" lon="5.30569">
        <ele>290.83</ele>
        <time>2025-07-08T09:19:49.181Z</time>
      </trkpt>
      <trkpt lat="45.6009" lon="5.3056">
        <ele>289.76</ele>
        <time>2025-07-08T09:19:51.289Z</time>
      </trkpt>
      <trkpt lat="45.60066" lon="5.30562">
        <ele>288.77</ele>
        <time>2025-07-08T09:19:53.405Z</time>
      </trkpt>
      <trkpt lat="45.60043" lon="5.30541">
        <ele>287.86</ele>
        <time>2025-07-08T09:19:55.530Z</time>
      </trkpt>
      <trkpt lat="45.60027" lon="5.30521">
        <ele>287</ele>
        <time>2025-07-08T09:19:57.662Z</time>
      </trkpt>
      <trkpt lat="45.60011" lon="5.305">
        <ele>286.21</ele>
        <time>2025-07-08T09:19:59.801Z</time>
      </trkpt>
      <trkpt lat="45.59995" lon="5.30469">
        <ele>285.64</ele>
        <time>2025-07-08T09:20:01.949Z</time>
      </trkpt>
      <trkpt lat="45.59995" lon="5.30469">
        <ele>284.99</ele>
        <time>2025-07-08T09:20:04.097Z</time>
      </trkpt>
      <trkpt lat="45.60011" lon="5.305">
        <ele>286.21</ele>
        <time>2025-07-08T09:20:06.254Z</time>
      </trkpt>
      <trkpt lat="45.59985" lon="5.30474">
        <ele>283.67</ele>
        <time>2025-07-08T09:20:08.422Z</time>
      </trkpt>
      <trkpt lat="45.59971" lon="5.30438">
        <ele>283.22</ele>
        <time>2025-07-08T09:20:10.600Z</time>
      </trkpt>
      <trkpt lat="45.59957" lon="5.30401">
        <ele>282.68</ele>
        <time>2025-07-08T09:20:12.787Z</time>
      </trkpt>
      <trkpt lat="45.59957" lon="5.30384">
        <ele>282.25</ele>
        <time>2025-07-08T09:20:14.978Z</time>
      </trkpt>
      <trkpt lat="45.59945" lon="5.3036">
        <ele>281.69</ele>
        <time>2025-07-08T09:20:17.176Z</time>
      </trkpt>
      <trkpt lat="45.59933" lon="5.30335">
        <ele>281.2</ele>
        <time>2025-07-08T09:20:19.381Z</time>
      </trkpt>
      <trkpt lat="45.59931" lon="5.3032">
        <ele>280.88</ele>
        <time>2025-07-08T09:20:21.590Z</time>
      </trkpt>
      <trkpt lat="45.59923" lon="5.30297">
        <ele>280.57</ele>
        <time>2025-07-08T09:20:23.805Z</time>
      </trkpt>
      <trkpt lat="45.59914" lon="5.30275">
        <ele>280.37</ele>
        <time>2025-07-08T09:20:26.026Z</time>
      </trkpt>
      <trkpt lat="45.59896" lon="5.30262">
        <ele>280.21</ele>
        <time>2025-07-08T09:20:28.254Z</time>
      </trkpt>
      <trkpt lat="45.59878" lon="5.30249">
        <ele>280.06</ele>
        <time>2025-07-08T09:20:30.488Z</time>
      </trkpt>
      <trkpt lat="45.59867" lon="5.30245">
        <ele>279.97</ele>
        <time>2025-07-08T09:20:32.726Z</time>
      </trkpt>
      <trkpt lat="45.59858" lon="5.30249">
        <ele>279.97</ele>
        <time>2025-07-08T09:20:34.967Z</time>
      </trkpt>
      <trkpt lat="45.59856" lon="5.30258">
        <ele>280.03</ele>
        <time>2025-07-08T09:20:37.210Z</time>
      </trkpt>
      <trkpt lat="45.59858" lon="5.30266">
        <ele>280.13</ele>
        <time>2025-07-08T09:20:39.455Z</time>
      </trkpt>
      <trkpt lat="45.59858" lon="5.30271">
        <ele>280.29</ele>
        <time>2025-07-08T09:20:41.701Z</time>
      </trkpt>
      <trkpt lat="45.59858" lon="5.30281">
        <ele>280.48</ele>
        <time>2025-07-08T09:20:43.950Z</time>
      </trkpt>
      <trkpt lat="45.59854" lon="5.30286">
        <ele>280.69</ele>
        <time>2025-07-08T09:20:46.201Z</time>
      </trkpt>
      <trkpt lat="45.59832" lon="5.30269">
        <ele>280.92</ele>
        <time>2025-07-08T09:20:48.460Z</time>
      </trkpt>
      <trkpt lat="45.5981" lon="5.30253">
        <ele>280.84</ele>
        <time>2025-07-08T09:20:50.727Z</time>
      </trkpt>
      <trkpt lat="45.59788" lon="5.30236">
        <ele>280.96</ele>
        <time>2025-07-08T09:20:53.003Z</time>
      </trkpt>
      <trkpt lat="45.59766" lon="5.30219">
        <ele>281.13</ele>
        <time>2025-07-08T09:20:55.287Z</time>
      </trkpt>
      <trkpt lat="45.59745" lon="5.30202">
        <ele>281.43</ele>
        <time>2025-07-08T09:20:57.579Z</time>
      </trkpt>
      <trkpt lat="45.5974" lon="5.30206">
        <ele>281.81</ele>
        <time>2025-07-08T09:20:59.873Z</time>
      </trkpt>
      <trkpt lat="45.59734" lon="5.30206">
        <ele>282.22</ele>
        <time>2025-07-08T09:21:02.169Z</time>
      </trkpt>
      <trkpt lat="45.59719" lon="5.3019">
        <ele>282.64</ele>
        <time>2025-07-08T09:21:04.471Z</time>
      </trkpt>
      <trkpt lat="45.59704" lon="5.30174">
        <ele>283.1</ele>
        <time>2025-07-08T09:21:06.780Z</time>
      </trkpt>
      <trkpt lat="45.597" lon="5.30163">
        <ele>283.41</ele>
        <time>2025-07-08T09:21:09.091Z</time>
      </trkpt>
      <trkpt lat="45.59685" lon="5.30151">
        <ele>283.71</ele>
        <time>2025-07-08T09:21:11.408Z</time>
      </trkpt>
      <trkpt lat="45.59685" lon="5.3015">
        <ele>284.05</ele>
        <time>2025-07-08T09:21:13.725Z</time>
      </trkpt>
      <trkpt lat="45.59685" lon="5.3015">
        <ele>284.37</ele>
        <time>2025-07-08T09:21:16.042Z</time>
      </trkpt>
      <trkpt lat="45.5968" lon="5.30146">
        <ele>284.64</ele>
        <time>2025-07-08T09:21:18.361Z</time>
      </trkpt>
      <trkpt lat="45.59654" lon="5.3012">
        <ele>284.8</ele>
        <time>2025-07-08T09:21:20.690Z</time>
      </trkpt>
      <trkpt lat="45.59637" lon="5.30107">
        <ele>285.08</ele>
        <time>2025-07-08T09:21:23.026Z</time>
      </trkpt>
      <trkpt lat="45.59617" lon="5.30075">
        <ele>285.2</ele>
        <time>2025-07-08T09:21:25.372Z</time>
      </trkpt>
      <trkpt lat="45.59597" lon="5.30043">
        <ele>285.21</ele>
        <time>2025-07-08T09:21:27.728Z</time>
      </trkpt>
      <trkpt lat="45.59588" lon="5.30024">
        <ele>285.15</ele>
        <time>2025-07-08T09:21:30.090Z</time>
      </trkpt>
      <trkpt lat="45.59559" lon="5.30014">
        <ele>285.65</ele>
        <time>2025-07-08T09:21:32.461Z</time>
      </trkpt>
      <trkpt lat="45.59559" lon="5.30014">
        <ele>285.43</ele>
        <time>2025-07-08T09:21:34.833Z</time>
      </trkpt>
      <trkpt lat="45.59556" lon="5.30013">
        <ele>285.11</ele>
        <time>2025-07-08T09:21:37.206Z</time>
      </trkpt>
      <trkpt lat="45.59549" lon="5.30005">
        <ele>284.62</ele>
        <time>2025-07-08T09:21:39.582Z</time>
      </trkpt>
      <trkpt lat="45.59547" lon="5.29998">
        <ele>283.89</ele>
        <time>2025-07-08T09:21:41.959Z</time>
      </trkpt>
      <trkpt lat="45.59549" lon="5.29966">
        <ele>282.56</ele>
        <time>2025-07-08T09:21:44.344Z</time>
      </trkpt>
      <trkpt lat="45.59549" lon="5.29955">
        <ele>281.39</ele>
        <time>2025-07-08T09:21:46.731Z</time>
      </trkpt>
      <trkpt lat="45.59532" lon="5.29923">
        <ele>280.09</ele>
        <time>2025-07-08T09:21:49.128Z</time>
      </trkpt>
      <trkpt lat="45.59515" lon="5.29896">
        <ele>278.88</ele>
        <time>2025-07-08T09:21:51.533Z</time>
      </trkpt>
      <trkpt lat="45.59498" lon="5.29869">
        <ele>277.64</ele>
        <time>2025-07-08T09:21:53.947Z</time>
      </trkpt>
      <trkpt lat="45.59485" lon="5.29844">
        <ele>276.19</ele>
        <time>2025-07-08T09:21:56.368Z</time>
      </trkpt>
      <trkpt lat="45.59477" lon="5.29813">
        <ele>274.59</ele>
        <time>2025-07-08T09:21:58.797Z</time>
      </trkpt>
      <trkpt lat="45.5947" lon="5.29783">
        <ele>272.86</ele>
        <time>2025-07-08T09:22:01.233Z</time>
      </trkpt>
      <trkpt lat="45.59457" lon="5.29745">
        <ele>271.09</ele>
        <time>2025-07-08T09:22:03.679Z</time>
      </trkpt>
      <trkpt lat="45.59443" lon="5.29716">
        <ele>269.41</ele>
        <time>2025-07-08T09:22:06.133Z</time>
      </trkpt>
      <trkpt lat="45.59429" lon="5.29687">
        <ele>267.57</ele>
        <time>2025-07-08T09:22:08.596Z</time>
      </trkpt>
      <trkpt lat="45.59422" lon="5.29657">
        <ele>265.61</ele>
        <time>2025-07-08T09:22:11.066Z</time>
      </trkpt>
      <trkpt lat="45.59414" lon="5.29627">
        <ele>263.74</ele>
        <time>2025-07-08T09:22:13.543Z</time>
      </trkpt>
      <trkpt lat="45.59401" lon="5.29608">
        <ele>262.21</ele>
        <time>2025-07-08T09:22:16.027Z</time>
      </trkpt>
      <trkpt lat="45.59397" lon="5.2959">
        <ele>260.5</ele>
        <time>2025-07-08T09:22:18.515Z</time>
      </trkpt>
      <trkpt lat="45.5938" lon="5.29573">
        <ele>260.65</ele>
        <time>2025-07-08T09:22:21.010Z</time>
      </trkpt>
      <trkpt lat="45.59369" lon="5.29538">
        <ele>257.22</ele>
        <time>2025-07-08T09:22:23.514Z</time>
      </trkpt>
      <trkpt lat="45.59358" lon="5.29503">
        <ele>255.71</ele>
        <time>2025-07-08T09:22:26.027Z</time>
      </trkpt>
      <trkpt lat="45.59358" lon="5.29503">
        <ele>254.49</ele>
        <time>2025-07-08T09:22:28.540Z</time>
      </trkpt>
      <trkpt lat="45.59356" lon="5.29498">
        <ele>255.73</ele>
        <time>2025-07-08T09:22:31.054Z</time>
      </trkpt>
      <trkpt lat="45.59336" lon="5.2948">
        <ele>252.25</ele>
        <time>2025-07-08T09:22:33.576Z</time>
      </trkpt>
      <trkpt lat="45.59315" lon="5.29462">
        <ele>251.26</ele>
        <time>2025-07-08T09:22:36.106Z</time>
      </trkpt>
      <trkpt lat="45.59295" lon="5.29443">
        <ele>250.48</ele>
        <time>2025-07-08T09:22:38.644Z</time>
      </trkpt>
      <trkpt lat="45.59275" lon="5.29425">
        <ele>249.31</ele>
        <time>2025-07-08T09:22:41.190Z</time>
      </trkpt>
      <trkpt lat="45.59275" lon="5.29425">
        <ele>248.17</ele>
        <time>2025-07-08T09:22:43.736Z</time>
      </trkpt>
      <trkpt lat="45.59254" lon="5.29407">
        <ele>248.58</ele>
        <time>2025-07-08T09:22:46.290Z</time>
      </trkpt>
      <trkpt lat="45.59234" lon="5.29389">
        <ele>246.38</ele>
        <time>2025-07-08T09:22:48.852Z</time>
      </trkpt>
      <trkpt lat="45.59219" lon="5.29367">
        <ele>245.59</ele>
        <time>2025-07-08T09:22:51.421Z</time>
      </trkpt>
      <trkpt lat="45.5921" lon="5.29346">
        <ele>244.92</ele>
        <time>2025-07-08T09:22:53.996Z</time>
      </trkpt>
      <trkpt lat="45.59208" lon="5.29329">
        <ele>244.38</ele>
        <time>2025-07-08T09:22:56.575Z</time>
      </trkpt>
      <trkpt lat="45.59204" lon="5.29326">
        <ele>243.98</ele>
        <time>2025-07-08T09:22:59.156Z</time>
      </trkpt>
      <trkpt lat="45.592" lon="5.29326">
        <ele>243.68</ele>
        <time>2025-07-08T09:23:01.738Z</time>
      </trkpt>
      <trkpt lat="45.59197" lon="5.2932">
        <ele>243.42</ele>
        <time>2025-07-08T09:23:04.322Z</time>
      </trkpt>
      <trkpt lat="45.59191" lon="5.29318">
        <ele>243.21</ele>
        <time>2025-07-08T09:23:06.908Z</time>
      </trkpt>
      <trkpt lat="45.59182" lon="5.29307">
        <ele>243.03</ele>
        <time>2025-07-08T09:23:09.498Z</time>
      </trkpt>
      <trkpt lat="45.59161" lon="5.2932">
        <ele>242.86</ele>
        <time>2025-07-08T09:23:12.096Z</time>
      </trkpt>
      <trkpt lat="45.5915" lon="5.29346">
        <ele>244.4</ele>
        <time>2025-07-08T09:23:14.701Z</time>
      </trkpt>
      <trkpt lat="45.59133" lon="5.29348">
        <ele>242.9</ele>
        <time>2025-07-08T09:23:17.311Z</time>
      </trkpt>
      <trkpt lat="45.59122" lon="5.29339">
        <ele>243</ele>
        <time>2025-07-08T09:23:19.926Z</time>
      </trkpt>
      <trkpt lat="45.59116" lon="5.29333">
        <ele>243.15</ele>
        <time>2025-07-08T09:23:22.543Z</time>
      </trkpt>
      <trkpt lat="45.59107" lon="5.29324">
        <ele>243.36</ele>
        <time>2025-07-08T09:23:25.164Z</time>
      </trkpt>
      <trkpt lat="45.59099" lon="5.29314">
        <ele>243.63</ele>
        <time>2025-07-08T09:23:27.789Z</time>
      </trkpt>
      <trkpt lat="45.59099" lon="5.29294">
        <ele>243.87</ele>
        <time>2025-07-08T09:23:30.418Z</time>
      </trkpt>
      <trkpt lat="45.59094" lon="5.29286">
        <ele>244.14</ele>
        <time>2025-07-08T09:23:33.050Z</time>
      </trkpt>
      <trkpt lat="45.59075" lon="5.29275">
        <ele>244.47</ele>
        <time>2025-07-08T09:23:35.688Z</time>
      </trkpt>
      <trkpt lat="45.59073" lon="5.29281">
        <ele>244.72</ele>
        <time>2025-07-08T09:23:38.328Z</time>
      </trkpt>
      <trkpt lat="45.5905" lon="5.29272">
        <ele>245.24</ele>
        <time>2025-07-08T09:23:40.976Z</time>
      </trkpt>
      <trkpt lat="45.59027" lon="5.29263">
        <ele>245.37</ele>
        <time>2025-07-08T09:23:43.632Z</time>
      </trkpt>
      <trkpt lat="45.59004" lon="5.29254">
        <ele>245.59</ele>
        <time>2025-07-08T09:23:46.296Z</time>
      </trkpt>
      <trkpt lat="45.58981" lon="5.29245">
        <ele>245.82</ele>
        <time>2025-07-08T09:23:48.968Z</time>
      </trkpt>
      <trkpt lat="45.58981" lon="5.29245">
        <ele>245.7</ele>
        <time>2025-07-08T09:23:51.640Z</time>
      </trkpt>
      <trkpt lat="45.5899" lon="5.29201">
        <ele>246.34</ele>
        <time>2025-07-08T09:23:54.323Z</time>
      </trkpt>
      <trkpt lat="45.59" lon="5.29158">
        <ele>246.63</ele>
        <time>2025-07-08T09:23:57.016Z</time>
      </trkpt>
      <trkpt lat="45.59005" lon="5.29135">
        <ele>246.87</ele>
        <time>2025-07-08T09:23:59.715Z</time>
      </trkpt>
      <trkpt lat="45.59005" lon="5.29133">
        <ele>247.11</ele>
        <time>2025-07-08T09:24:02.414Z</time>
      </trkpt>
      <trkpt lat="45.58976" lon="5.29117">
        <ele>247.39</ele>
        <time>2025-07-08T09:24:05.124Z</time>
      </trkpt>
      <trkpt lat="45.58963" lon="5.29109">
        <ele>247.64</ele>
        <time>2025-07-08T09:24:07.839Z</time>
      </trkpt>
      <trkpt lat="45.58962" lon="5.29109">
        <ele>247.8</ele>
        <time>2025-07-08T09:24:10.554Z</time>
      </trkpt>
      <trkpt lat="45.58966" lon="5.29099">
        <ele>247.94</ele>
        <time>2025-07-08T09:24:13.272Z</time>
      </trkpt>
      <trkpt lat="45.58966" lon="5.29097">
        <ele>248.05</ele>
        <time>2025-07-08T09:24:15.990Z</time>
      </trkpt>
      <trkpt lat="45.58978" lon="5.29086">
        <ele>248.11</ele>
        <time>2025-07-08T09:24:18.713Z</time>
      </trkpt>
      <trkpt lat="45.58979" lon="5.29085">
        <ele>248.19</ele>
        <time>2025-07-08T09:24:21.436Z</time>
      </trkpt>
      <trkpt lat="45.58987" lon="5.29065">
        <ele>248.25</ele>
        <time>2025-07-08T09:24:24.165Z</time>
      </trkpt>
      <trkpt lat="45.58988" lon="5.29064">
        <ele>248.3</ele>
        <time>2025-07-08T09:24:26.894Z</time>
      </trkpt>
      <trkpt lat="45.5899" lon="5.29043">
        <ele>248.34</ele>
        <time>2025-07-08T09:24:29.628Z</time>
      </trkpt>
      <trkpt lat="45.5899" lon="5.29041">
        <ele>248.31</ele>
        <time>2025-07-08T09:24:32.362Z</time>
      </trkpt>
      <trkpt lat="45.58988" lon="5.29024">
        <ele>248.24</ele>
        <time>2025-07-08T09:24:35.101Z</time>
      </trkpt>
      <trkpt lat="45.58988" lon="5.29022">
        <ele>248.08</ele>
        <time>2025-07-08T09:24:37.840Z</time>
      </trkpt>
      <trkpt lat="45.58983" lon="5.29004">
        <ele>247.78</ele>
        <time>2025-07-08T09:24:40.583Z</time>
      </trkpt>
      <trkpt lat="45.58982" lon="5.29002">
        <ele>247.53</ele>
        <time>2025-07-08T09:24:43.327Z</time>
      </trkpt>
      <trkpt lat="45.58966" lon="5.28993">
        <ele>247.18</ele>
        <time>2025-07-08T09:24:46.077Z</time>
      </trkpt>
      <trkpt lat="45.58965" lon="5.28992">
        <ele>246.76</ele>
        <time>2025-07-08T09:24:48.827Z</time>
      </trkpt>
      <trkpt lat="45.58935" lon="5.28979">
        <ele>246.13</ele>
        <time>2025-07-08T09:24:51.588Z</time>
      </trkpt>
      <trkpt lat="45.58932" lon="5.28978">
        <ele>245.69</ele>
        <time>2025-07-08T09:24:54.350Z</time>
      </trkpt>
      <trkpt lat="45.5893" lon="5.28978">
        <ele>245.22</ele>
        <time>2025-07-08T09:24:57.112Z</time>
      </trkpt>
      <trkpt lat="45.58899" lon="5.2897">
        <ele>244.62</ele>
        <time>2025-07-08T09:24:59.885Z</time>
      </trkpt>
      <trkpt lat="45.58894" lon="5.28968">
        <ele>244.32</ele>
        <time>2025-07-08T09:25:02.660Z</time>
      </trkpt>
    </trkseg>
  </trk>
</gpx>